Coloma, MI

7:44 PM EST on January 31, 2015 (GMT -0500)
Kevin and Patricia's | Change Station
CLOSE
Current Station
Personal Weather Station
Location: Millburg, MI
Elevation: 669 ft
Nearby Weather Stations
Active Advisory: Winter Storm Warning

Elev 669 ft 42.12 °N, 86.34 °W | Updated 6 seconds ago

Overcast
Overcast
32.2 °F
Feels Like 32 °F
N
0.0
Wind Variable Wind from North
Gusts 0.0 mph

Today
High -- | Low -- °F
--% Chance of Precip.
Yesterday
High -- | Low -- °F
Precip. -- in
7:59 AM 5:58 PM
Waxing Gibbous, 92% visible
Pressure 30.22 in
Visibility 10.0 miles
Clouds Overcast 8500 ft
Windchill 32 °F
Dew Point 26 °F
Humidity 77%
Rainfall 0.00 in
Snow Depth Not available.
UV 0 out of 12
Pollen .10 out of 12
Air Quality Not available.
Flu Activity Not available.
METAR KBEH 312353Z AUTO 00000KT 10SM OVC085 00/M03 A3019 RMK AO2 SLP231 T00001033 10022 20000 53004

More Conditions Fewer Conditions

Pressure 30.22 in
Visibility 10.0 miles
Clouds Overcast 8500 ft
Windchill 32 °F
Dew Point 26 °F
Humidity 77%
Rainfall 0.00 in
Snow Depth Not available.
UV 0 out of 12
Pollen .10 out of 12
Air Quality Not available.
Flu Activity Not available.
METAR KBEH 312353Z AUTO 00000KT 10SM OVC085 00/M03 A3019 RMK AO2 SLP231 T00001033 10022 20000 53004

More Conditions Fewer Conditions

10-Day Weather Forecast

Almanac

Astronomy

Jan. 31, 2015 Rise Set
Actual Time
Civil Twilight
Nautical Twilight
Astronomical Twilight
Moon
Length of Visible Light
Length of Day
Tomorrow will be .
, % of the Moon is Illuminated

Today's Extremes

State Highs State Lows

Community

WunderPhotos

Upload Photos

1,792,265 photos uploaded!

WunderBlogs® & News

Nearby

Air Quality

  Air Quality AQ Index Pollutant
Not available.

Snow Depth

Station Depth Elevation

Earthquake Activity

City Distance Mag. Time & Date
Minimum magnitude displayed is 2.5.

Coastal Water Temperatures

Place Temperature

Nearby Weather Stations